QTR889 YBBN-OTHH
Flight info
| Callsign | QTR889 |
|---|---|
| Flight time | N/A |
| Altitude | 30000 |
| Route | WACKO V250 UNVAT DCT KANGI DCT LRE DCT DOTAP DCT 17S130E/N0507F320 14S125E 13S123E DCT ONOXA G326 BLI M766 LASEM/N0499F340 M766 GODAV/N0491F360 M766 KAT P570 TEGOR/N0486F380 P570 EMURU N563 SODEX/N0488F340 N563 UMIBU P899 TOVOX |
| Aircraft | B77W/H-SDE1E2E3FGHIJ2J3J4J5M1RWXY/LB1D1 |
Departure
| Time | 2026-04-27 10:01 |
|---|---|
| Airport | Brisbane International Airport (YBBN) |
Arrival
| Time | N/A |
|---|---|
| Airport | Hamad International Airport (OTHH) |
| Time | Latitude | Longitude | Altitude | Speed | Heading |
|---|---|---|---|---|---|
| 2026-04-27 09:10 | -27.40054 | 153.11363 | 26 ft | 0 kts | 296° |
| 2026-04-27 09:48 | -27.40059 | 153.11378 | 26 ft | 4 kts | 311° |
| 2026-04-27 09:48 | -27.40074 | 153.11394 | 32 ft | 4 kts | 332° |
| 2026-04-27 09:48 | -27.40099 | 153.11404 | 31 ft | 3 kts | 342° |
| 2026-04-27 09:48 | -27.40103 | 153.11405 | 31 ft | 0 kts | 341° |
| 2026-04-27 09:51 | -27.40098 | 153.11405 | 32 ft | 3 kts | 349° |
| 2026-04-27 09:51 | -27.40062 | 153.11432 | 30 ft | 10 kts | 58° |
| 2026-04-27 09:52 | -27.40008 | 153.11501 | 29 ft | 13 kts | 28° |
| 2026-04-27 09:52 | -27.39917 | 153.11554 | 30 ft | 16 kts | 27° |
| 2026-04-27 09:52 | -27.39869 | 153.11636 | 29 ft | 14 kts | 94° |
| 2026-04-27 09:52 | -27.39817 | 153.11725 | 32 ft | 16 kts | 24° |
| 2026-04-27 09:53 | -27.39709 | 153.11784 | 28 ft | 19 kts | 28° |
| 2026-04-27 09:53 | -27.39586 | 153.11853 | 31 ft | 21 kts | 25° |
| 2026-04-27 09:53 | -27.39449 | 153.11933 | 30 ft | 23 kts | 27° |
| 2026-04-27 09:53 | -27.39299 | 153.12022 | 30 ft | 26 kts | 28° |
| 2026-04-27 09:54 | -27.39138 | 153.12110 | 28 ft | 22 kts | 27° |
| 2026-04-27 09:54 | -27.39023 | 153.12176 | 30 ft | 20 kts | 27° |
| 2026-04-27 09:54 | -27.38905 | 153.12243 | 31 ft | 17 kts | 27° |
| 2026-04-27 09:54 | -27.38811 | 153.12298 | 28 ft | 17 kts | 27° |
| 2026-04-27 09:55 | -27.38700 | 153.12360 | 30 ft | 19 kts | 27° |
| 2026-04-27 09:55 | -27.38574 | 153.12432 | 29 ft | 21 kts | 27° |
| 2026-04-27 09:55 | -27.38290 | 153.12595 | 29 ft | 23 kts | 27° |
| 2026-04-27 09:56 | -27.38154 | 153.12673 | 32 ft | 16 kts | 26° |
| 2026-04-27 09:56 | -27.38125 | 153.12689 | 30 ft | 0 kts | 26° |
| 2026-04-27 09:56 | -27.38116 | 153.12694 | 30 ft | 3 kts | 26° |
| 2026-04-27 09:57 | -27.38087 | 153.12710 | 30 ft | 6 kts | 26° |
| 2026-04-27 09:57 | -27.38037 | 153.12738 | 29 ft | 9 kts | 26° |
| 2026-04-27 09:57 | -27.37970 | 153.12778 | 31 ft | 13 kts | 28° |
| 2026-04-27 09:57 | -27.37884 | 153.12830 | 30 ft | 15 kts | 28° |
| 2026-04-27 09:58 | -27.37780 | 153.12888 | 31 ft | 18 kts | 27° |
| 2026-04-27 09:58 | -27.37659 | 153.12956 | 29 ft | 21 kts | 26° |
| 2026-04-27 09:58 | -27.37529 | 153.13029 | 27 ft | 20 kts | 26° |
| 2026-04-27 09:58 | -27.37406 | 153.13100 | 31 ft | 20 kts | 27° |
| 2026-04-27 09:59 | -27.37289 | 153.13172 | 31 ft | 18 kts | 44° |
| 2026-04-27 09:59 | -27.37290 | 153.13271 | 32 ft | 0 kts | 114° |
| 2026-04-27 10:00 | -27.37293 | 153.13279 | 26 ft | 3 kts | 115° |
| 2026-04-27 10:00 | -27.37306 | 153.13310 | 32 ft | 7 kts | 115° |
| 2026-04-27 10:00 | -27.37357 | 153.13396 | 27 ft | 19 kts | 139° |
| 2026-04-27 10:00 | -27.37507 | 153.13409 | 27 ft | 29 kts | 204° |
| 2026-04-27 10:01 | -27.37844 | 153.13216 | 29 ft | 91 kts | 207° |
| 2026-04-27 10:01 | -27.38644 | 153.12761 | 27 ft | 165 kts | 207° |
| 2026-04-27 10:01 | -27.39834 | 153.12107 | 283 ft | 197 kts | 206° |
| 2026-04-27 10:01 | -27.41051 | 153.11398 | 1113 ft | 196 kts | 205° |
| 2026-04-27 10:02 | -27.42264 | 153.10687 | 1882 ft | 201 kts | 202° |
| 2026-04-27 10:02 | -27.43563 | 153.09936 | 1984 ft | 217 kts | 201° |
| 2026-04-27 10:02 | -27.44949 | 153.09136 | 2162 ft | 230 kts | 201° |
| 2026-04-27 10:02 | -27.46385 | 153.08308 | 2487 ft | 238 kts | 201° |
| 2026-04-27 10:03 | -27.47831 | 153.07328 | 2783 ft | 250 kts | 218° |
| 2026-04-27 10:03 | -27.48797 | 153.05639 | 3104 ft | 266 kts | 249° |
| 2026-04-27 10:03 | -27.49012 | 153.03561 | 3575 ft | 272 kts | 272° |
| 2026-04-27 10:03 | -27.48780 | 153.01436 | 3984 ft | 275 kts | 275° |
| 2026-04-27 10:04 | -27.48542 | 152.99298 | 4475 ft | 275 kts | 274° |
| 2026-04-27 10:04 | -27.48316 | 152.97157 | 5003 ft | 275 kts | 274° |
| 2026-04-27 10:04 | -27.48093 | 152.95024 | 5509 ft | 275 kts | 275° |
| 2026-04-27 10:04 | -27.47753 | 152.92893 | 5748 ft | 284 kts | 292° |
| 2026-04-27 10:05 | -27.46548 | 152.91109 | 5876 ft | 293 kts | 328° |
| 2026-04-27 10:05 | -27.44739 | 152.90036 | 6134 ft | 297 kts | 336° |
| 2026-04-27 10:05 | -27.42861 | 152.89016 | 6595 ft | 301 kts | 335° |
| 2026-04-27 10:05 | -27.40981 | 152.87976 | 7137 ft | 301 kts | 335° |
| 2026-04-27 10:06 | -27.39104 | 152.86932 | 7653 ft | 301 kts | 335° |
| 2026-04-27 10:06 | -27.37222 | 152.85883 | 8141 ft | 303 kts | 335° |
| 2026-04-27 10:06 | -27.35330 | 152.84825 | 8636 ft | 304 kts | 334° |
| 2026-04-27 10:06 | -27.33431 | 152.83759 | 9102 ft | 306 kts | 335° |
| 2026-04-27 10:07 | -27.31549 | 152.82701 | 9587 ft | 307 kts | 335° |
| 2026-04-27 10:07 | -27.29618 | 152.81613 | 10123 ft | 307 kts | 335° |
| 2026-04-27 10:07 | -27.27705 | 152.80538 | 10356 ft | 318 kts | 335° |
| 2026-04-27 10:07 | -27.25672 | 152.79398 | 10468 ft | 333 kts | 335° |
| 2026-04-27 10:08 | -27.23552 | 152.78194 | 10588 ft | 349 kts | 334° |
| 2026-04-27 10:08 | -27.21362 | 152.76880 | 10722 ft | 365 kts | 333° |
| 2026-04-27 10:08 | -27.19180 | 152.75342 | 10823 ft | 377 kts | 318° |
| 2026-04-27 10:08 | -27.17584 | 152.72973 | 11115 ft | 385 kts | 297° |
| 2026-04-27 10:09 | -27.16377 | 152.70260 | 11516 ft | 391 kts | 297° |
| 2026-04-27 10:09 | -27.15129 | 152.67522 | 12116 ft | 395 kts | 297° |
| 2026-04-27 10:09 | -27.13862 | 152.64786 | 12822 ft | 397 kts | 298° |
| 2026-04-27 10:09 | -27.12573 | 152.62025 | 13480 ft | 401 kts | 298° |
| 2026-04-27 10:10 | -27.11268 | 152.59238 | 14102 ft | 405 kts | 298° |
| 2026-04-27 10:10 | -27.09954 | 152.56441 | 14752 ft | 407 kts | 298° |
| 2026-04-27 10:10 | -27.08628 | 152.53617 | 15372 ft | 409 kts | 298° |
| 2026-04-27 10:10 | -27.07305 | 152.50801 | 16126 ft | 408 kts | 298° |
| 2026-04-27 10:11 | -27.05979 | 152.47984 | 16711 ft | 412 kts | 298° |
| 2026-04-27 10:11 | -27.04630 | 152.45121 | 17187 ft | 418 kts | 298° |
| 2026-04-27 10:11 | -27.03265 | 152.42234 | 17809 ft | 420 kts | 298° |
| 2026-04-27 10:11 | -27.01890 | 152.39328 | 18362 ft | 424 kts | 298° |
| 2026-04-27 10:12 | -27.00503 | 152.36398 | 18892 ft | 427 kts | 298° |
| 2026-04-27 10:12 | -26.99110 | 152.33455 | 19448 ft | 428 kts | 298° |
| 2026-04-27 10:12 | -26.97706 | 152.30490 | 19909 ft | 432 kts | 298° |
| 2026-04-27 10:12 | -26.96296 | 152.27514 | 20455 ft | 434 kts | 298° |
| 2026-04-27 10:13 | -26.94876 | 152.24519 | 20943 ft | 437 kts | 298° |
| 2026-04-27 10:13 | -26.93443 | 152.21501 | 21358 ft | 441 kts | 298° |
| 2026-04-27 10:13 | -26.91999 | 152.18459 | 21889 ft | 443 kts | 298° |
| 2026-04-27 10:13 | -26.90545 | 152.15397 | 22319 ft | 447 kts | 298° |
| 2026-04-27 10:14 | -26.89097 | 152.12352 | 22800 ft | 449 kts | 298° |
| 2026-04-27 10:14 | -26.87606 | 152.09218 | 23308 ft | 451 kts | 298° |
| 2026-04-27 10:14 | -26.86144 | 152.06147 | 23755 ft | 454 kts | 298° |
| 2026-04-27 10:14 | -26.84651 | 152.03015 | 24100 ft | 458 kts | 298° |
| 2026-04-27 10:15 | -26.83145 | 151.99855 | 24464 ft | 461 kts | 298° |
| 2026-04-27 10:15 | -26.81634 | 151.96688 | 24848 ft | 462 kts | 298° |
| 2026-04-27 10:15 | -26.80114 | 151.93505 | 25201 ft | 465 kts | 298° |
| 2026-04-27 10:15 | -26.78575 | 151.90294 | 25464 ft | 470 kts | 298° |
| 2026-04-27 10:16 | -26.77023 | 151.87066 | 25887 ft | 470 kts | 298° |
| 2026-04-27 10:16 | -26.75466 | 151.83831 | 26209 ft | 474 kts | 298° |
| 2026-04-27 10:16 | -26.73904 | 151.80586 | 26602 ft | 474 kts | 298° |
| 2026-04-27 10:16 | -26.72334 | 151.77326 | 26917 ft | 477 kts | 297° |
| 2026-04-27 10:17 | -26.70751 | 151.74040 | 27167 ft | 481 kts | 298° |
| 2026-04-27 10:17 | -26.69158 | 151.70736 | 27501 ft | 484 kts | 297° |
| 2026-04-27 10:17 | -26.67559 | 151.67421 | 27797 ft | 486 kts | 297° |
| 2026-04-27 10:17 | -26.65951 | 151.64089 | 28151 ft | 487 kts | 298° |
| 2026-04-27 10:18 | -26.64338 | 151.60754 | 28371 ft | 490 kts | 297° |
| 2026-04-27 10:18 | -26.62713 | 151.57393 | 28642 ft | 493 kts | 297° |
| 2026-04-27 10:18 | -26.61083 | 151.54024 | 29004 ft | 493 kts | 297° |
| 2026-04-27 10:18 | -26.59448 | 151.50643 | 29184 ft | 497 kts | 297° |
| 2026-04-27 10:19 | -26.57819 | 151.47281 | 29454 ft | 498 kts | 296° |
| 2026-04-27 10:19 | -26.56163 | 151.43865 | 29635 ft | 501 kts | 297° |
| 2026-04-27 10:19 | -26.54505 | 151.40450 | 30046 ft | 499 kts | 297° |
| 2026-04-27 10:19 | -26.52848 | 151.37043 | 30266 ft | 499 kts | 297° |
| 2026-04-27 10:20 | -26.49536 | 151.30232 | 30221 ft | 498 kts | 297° |
| 2026-04-27 10:20 | -26.46236 | 151.23453 | 30228 ft | 498 kts | 297° |
| 2026-04-27 10:21 | -26.44562 | 151.20019 | 30473 ft | 489 kts | 297° |
| 2026-04-27 10:21 | -26.42930 | 151.16674 | 30271 ft | 493 kts | 297° |
| 2026-04-27 10:21 | -26.39749 | 151.10148 | 30304 ft | 492 kts | 297° |
| 2026-04-27 10:22 | -26.36475 | 151.03423 | 30266 ft | 500 kts | 297° |
| 2026-04-27 10:22 | -26.33156 | 150.96615 | 30216 ft | 499 kts | 297° |
| 2026-04-27 10:23 | -26.29841 | 150.89827 | 30213 ft | 498 kts | 297° |
| 2026-04-27 10:23 | -26.26529 | 150.83056 | 30211 ft | 497 kts | 297° |
| 2026-04-27 10:24 | -26.23222 | 150.76306 | 30214 ft | 496 kts | 297° |
| 2026-04-27 10:24 | -26.19913 | 150.69563 | 30214 ft | 496 kts | 297° |
| 2026-04-27 10:25 | -26.16607 | 150.62835 | 30215 ft | 498 kts | 297° |
| 2026-04-27 10:25 | -26.13839 | 150.57209 | 30212 ft | 500 kts | 297° |
| 2026-04-27 10:26 | -26.10492 | 150.50416 | 30209 ft | 501 kts | 297° |
| 2026-04-27 10:26 | -26.07136 | 150.43618 | 30198 ft | 502 kts | 297° |
| 2026-04-27 10:27 | -26.03771 | 150.36810 | 30205 ft | 502 kts | 297° |
| 2026-04-27 10:27 | -26.00940 | 150.31091 | 30202 ft | 503 kts | 297° |
| 2026-04-27 10:28 | -25.98993 | 150.27161 | 30204 ft | 502 kts | 297° |
| 2026-04-27 10:28 | -25.97091 | 150.23325 | 30187 ft | 503 kts | 297° |
| 2026-04-27 10:29 | -25.94951 | 150.19015 | 30181 ft | 503 kts | 297° |
| 2026-04-27 10:29 | -25.92671 | 150.14429 | 30093 ft | 503 kts | 297° |
| 2026-04-27 10:30 | -25.90729 | 150.10522 | 30238 ft | 500 kts | 297° |
| 2026-04-27 10:30 | -25.89059 | 150.07154 | 30152 ft | 502 kts | 299° |
| 2026-04-27 10:31 | -25.87313 | 150.03768 | 30089 ft | 501 kts | 298° |
| 2026-04-27 10:31 | -25.85020 | 149.99144 | 30168 ft | 499 kts | 296° |
| 2026-04-27 10:32 | -25.83264 | 149.95565 | 30147 ft | 500 kts | 296° |
| 2026-04-27 10:32 | -25.81454 | 149.91902 | 30196 ft | 499 kts | 297° |
| 2026-04-27 10:33 | -25.79262 | 149.87166 | 30176 ft | 497 kts | 291° |
| 2026-04-27 10:33 | -25.77488 | 149.82675 | 30213 ft | 497 kts | 291° |
| 2026-04-27 10:34 | -25.75873 | 149.78558 | 30163 ft | 499 kts | 291° |
| 2026-04-27 10:34 | -25.74388 | 149.74779 | 30213 ft | 498 kts | 291° |
| 2026-04-27 10:35 | -25.72929 | 149.71085 | 30186 ft | 499 kts | 291° |
| 2026-04-27 10:35 | -25.71172 | 149.66663 | 30212 ft | 500 kts | 291° |
| 2026-04-27 10:36 | -25.69651 | 149.62847 | 30176 ft | 501 kts | 291° |
| 2026-04-27 10:36 | -25.68184 | 149.59170 | 30169 ft | 501 kts | 291° |
| 2026-04-27 10:37 | -25.67372 | 149.57138 | 30196 ft | 501 kts | 291° |
| 2026-04-27 10:37 | -25.67028 | 149.56276 | 30196 ft | 501 kts | 291° |
| 2026-04-27 10:38 | -25.66686 | 149.55422 | 30204 ft | 501 kts | 291° |
| 2026-04-27 10:38 | -25.65943 | 149.53573 | 30229 ft | 501 kts | 291° |
| 2026-04-27 10:39 | -25.65257 | 149.51862 | 30237 ft | 501 kts | 291° |
| 2026-04-27 10:39 | -25.64582 | 149.50176 | 30201 ft | 502 kts | 291° |
| 2026-04-27 10:40 | -25.64398 | 149.49720 | 30169 ft | 503 kts | 291° |
| 2026-04-27 10:40 | -25.63871 | 149.48404 | 30145 ft | 503 kts | 291° |
| 2026-04-27 10:41 | -25.63280 | 149.46932 | 30154 ft | 503 kts | 291° |
| 2026-04-27 10:41 | -25.60609 | 149.40275 | 30180 ft | 503 kts | 291° |
| 2026-04-27 10:42 | -25.57766 | 149.33190 | 30181 ft | 504 kts | 291° |
| 2026-04-27 10:42 | -25.54914 | 149.26099 | 30185 ft | 504 kts | 291° |
| 2026-04-27 10:43 | -25.52066 | 149.19030 | 30178 ft | 504 kts | 291° |
| 2026-04-27 10:43 | -25.49224 | 149.11991 | 30202 ft | 503 kts | 291° |
| 2026-04-27 10:44 | -25.46349 | 149.04881 | 30180 ft | 503 kts | 291° |
| 2026-04-27 10:44 | -25.43512 | 148.97880 | 30191 ft | 501 kts | 291° |
| 2026-04-27 10:45 | -25.40660 | 148.90851 | 30181 ft | 500 kts | 291° |
| 2026-04-27 10:45 | -25.37812 | 148.83842 | 30188 ft | 499 kts | 291° |
| 2026-04-27 10:46 | -25.35014 | 148.76967 | 30192 ft | 498 kts | 291° |
| 2026-04-27 10:46 | -25.32171 | 148.69993 | 30178 ft | 497 kts | 291° |
| 2026-04-27 10:47 | -25.29329 | 148.63035 | 30197 ft | 496 kts | 291° |
| 2026-04-27 10:47 | -25.26486 | 148.56080 | 30185 ft | 497 kts | 290° |
| 2026-04-27 10:48 | -25.23640 | 148.49133 | 30193 ft | 497 kts | 290° |
| 2026-04-27 10:48 | -25.20786 | 148.42182 | 30192 ft | 496 kts | 290° |
| 2026-04-27 10:49 | -25.17937 | 148.35247 | 30194 ft | 495 kts | 291° |
| 2026-04-27 10:49 | -25.15091 | 148.28332 | 30182 ft | 494 kts | 291° |
| 2026-04-27 10:50 | -25.12243 | 148.21427 | 30190 ft | 494 kts | 291° |
| 2026-04-27 10:50 | -25.09396 | 148.14535 | 30201 ft | 493 kts | 291° |
| 2026-04-27 10:51 | -25.06569 | 148.07699 | 30200 ft | 493 kts | 291° |
| 2026-04-27 10:51 | -25.03724 | 148.00828 | 30205 ft | 492 kts | 291° |
| 2026-04-27 10:52 | -25.00879 | 147.93971 | 30197 ft | 492 kts | 291° |
| 2026-04-27 10:52 | -24.98036 | 147.87132 | 30193 ft | 490 kts | 291° |
| 2026-04-27 10:53 | -24.93790 | 147.76937 | 30186 ft | 487 kts | 291° |
| 2026-04-27 10:54 | -24.90967 | 147.70170 | 30200 ft | 486 kts | 291° |
| 2026-04-27 10:54 | -24.88143 | 147.63409 | 30174 ft | 485 kts | 291° |
| 2026-04-27 10:55 | -24.85324 | 147.56673 | 30172 ft | 484 kts | 291° |
| 2026-04-27 10:55 | -24.82509 | 147.49956 | 30192 ft | 483 kts | 291° |
| 2026-04-27 10:56 | -24.79697 | 147.43254 | 30172 ft | 482 kts | 291° |
| 2026-04-27 10:56 | -24.76882 | 147.36558 | 30174 ft | 482 kts | 291° |
| 2026-04-27 10:57 | -24.74072 | 147.29886 | 30185 ft | 480 kts | 291° |
| 2026-04-27 10:57 | -24.71264 | 147.23224 | 30181 ft | 480 kts | 291° |
| 2026-04-27 10:58 | -24.68453 | 147.16568 | 30168 ft | 480 kts | 291° |
| 2026-04-27 10:58 | -24.65641 | 147.09919 | 30154 ft | 479 kts | 290° |
| 2026-04-27 10:59 | -24.62831 | 147.03285 | 30158 ft | 478 kts | 290° |
| 2026-04-27 10:59 | -24.60021 | 146.96659 | 30168 ft | 478 kts | 290° |
| 2026-04-27 11:00 | -24.55808 | 146.86746 | 30171 ft | 477 kts | 290° |
| 2026-04-27 11:00 | -24.53016 | 146.80188 | 30165 ft | 477 kts | 290° |
| 2026-04-27 11:01 | -24.50205 | 146.73594 | 30167 ft | 477 kts | 290° |
| 2026-04-27 11:01 | -24.47388 | 146.66994 | 30164 ft | 477 kts | 290° |
| 2026-04-27 11:02 | -24.44567 | 146.60395 | 30160 ft | 478 kts | 290° |
| 2026-04-27 11:02 | -24.41743 | 146.53799 | 30162 ft | 478 kts | 290° |
| 2026-04-27 11:03 | -24.38912 | 146.47199 | 30155 ft | 478 kts | 290° |
| 2026-04-27 11:03 | -24.36077 | 146.40599 | 30157 ft | 478 kts | 290° |
| 2026-04-27 11:04 | -24.33239 | 146.34000 | 30155 ft | 478 kts | 290° |
| 2026-04-27 11:04 | -24.30399 | 146.27407 | 30145 ft | 478 kts | 290° |
| 2026-04-27 11:05 | -24.27557 | 146.20819 | 30152 ft | 478 kts | 290° |
| 2026-04-27 11:05 | -24.24715 | 146.14239 | 30150 ft | 478 kts | 290° |
| 2026-04-27 11:06 | -24.21866 | 146.07654 | 30141 ft | 478 kts | 290° |
| 2026-04-27 11:06 | -24.19018 | 146.01079 | 30137 ft | 478 kts | 290° |
| 2026-04-27 11:07 | -24.16185 | 145.94548 | 30140 ft | 478 kts | 290° |
| 2026-04-27 11:07 | -24.13308 | 145.87924 | 30134 ft | 478 kts | 290° |
| 2026-04-27 11:08 | -24.10468 | 145.81398 | 30136 ft | 478 kts | 290° |
| 2026-04-27 11:08 | -24.07605 | 145.74826 | 30117 ft | 478 kts | 290° |
| 2026-04-27 11:09 | -24.04741 | 145.68261 | 30128 ft | 478 kts | 290° |
| 2026-04-27 11:09 | -24.01876 | 145.61702 | 30118 ft | 478 kts | 290° |
| 2026-04-27 11:10 | -23.99009 | 145.55148 | 30133 ft | 477 kts | 290° |
| 2026-04-27 11:10 | -23.96141 | 145.48607 | 30123 ft | 477 kts | 291° |
| 2026-04-27 11:11 | -23.93260 | 145.42069 | 30121 ft | 477 kts | 291° |
| 2026-04-27 11:11 | -23.90374 | 145.35531 | 30123 ft | 477 kts | 291° |
| 2026-04-27 11:12 | -23.87488 | 145.28994 | 30117 ft | 478 kts | 291° |
| 2026-04-27 11:12 | -23.84616 | 145.22497 | 30102 ft | 478 kts | 291° |
| 2026-04-27 11:13 | -23.81721 | 145.15958 | 30118 ft | 479 kts | 291° |
| 2026-04-27 11:13 | -23.78820 | 145.09413 | 30115 ft | 479 kts | 291° |
| 2026-04-27 11:14 | -23.75912 | 145.02862 | 30115 ft | 479 kts | 291° |
| 2026-04-27 11:14 | -23.73000 | 144.96312 | 30106 ft | 480 kts | 291° |
| 2026-04-27 11:15 | -23.70085 | 144.89764 | 30115 ft | 480 kts | 291° |
| 2026-04-27 11:15 | -23.67657 | 144.84317 | 30109 ft | 480 kts | 291° |
| 2026-04-27 11:16 | -23.64732 | 144.77764 | 30116 ft | 481 kts | 291° |
| 2026-04-27 11:16 | -23.61804 | 144.71212 | 30105 ft | 481 kts | 291° |
| 2026-04-27 11:17 | -23.58871 | 144.64658 | 30105 ft | 481 kts | 291° |
| 2026-04-27 11:17 | -23.55938 | 144.58112 | 30106 ft | 481 kts | 291° |
| 2026-04-27 11:18 | -23.52999 | 144.51564 | 30106 ft | 481 kts | 291° |
| 2026-04-27 11:18 | -23.50060 | 144.45023 | 30097 ft | 481 kts | 291° |
| 2026-04-27 11:19 | -23.47115 | 144.38477 | 30097 ft | 481 kts | 291° |
| 2026-04-27 11:19 | -23.44168 | 144.31936 | 30102 ft | 482 kts | 291° |
| 2026-04-27 11:20 | -23.41269 | 144.25361 | 30095 ft | 480 kts | 289° |
| 2026-04-27 11:20 | -23.38614 | 144.18695 | 30106 ft | 480 kts | 288° |
| 2026-04-27 11:21 | -23.36001 | 144.12015 | 30092 ft | 480 kts | 288° |
| 2026-04-27 11:21 | -23.33352 | 144.05341 | 30101 ft | 480 kts | 289° |
| 2026-04-27 11:22 | -23.30679 | 143.98680 | 30100 ft | 480 kts | 289° |
| 2026-04-27 11:22 | -23.27996 | 143.92024 | 30101 ft | 480 kts | 289° |
| 2026-04-27 11:23 | -23.25310 | 143.85370 | 30097 ft | 480 kts | 289° |
| 2026-04-27 11:23 | -23.22625 | 143.78723 | 30099 ft | 480 kts | 289° |
| 2026-04-27 11:24 | -23.19935 | 143.72073 | 30089 ft | 481 kts | 289° |
| 2026-04-27 11:24 | -23.17241 | 143.65421 | 30102 ft | 481 kts | 289° |
| 2026-04-27 11:25 | -23.14537 | 143.58754 | 30100 ft | 482 kts | 289° |
| 2026-04-27 11:25 | -23.11845 | 143.52127 | 30100 ft | 483 kts | 289° |
| 2026-04-27 11:26 | -23.09130 | 143.45452 | 30096 ft | 484 kts | 289° |
| 2026-04-27 11:26 | -23.06406 | 143.38766 | 30102 ft | 484 kts | 289° |
| 2026-04-27 11:27 | -23.03677 | 143.32075 | 30101 ft | 485 kts | 289° |
| 2026-04-27 11:27 | -23.00940 | 143.25376 | 30101 ft | 485 kts | 289° |
| 2026-04-27 11:28 | -22.98202 | 143.18686 | 30105 ft | 485 kts | 290° |
| 2026-04-27 11:28 | -22.95461 | 143.11996 | 30098 ft | 485 kts | 290° |
| 2026-04-27 11:29 | -22.92718 | 143.05311 | 30098 ft | 485 kts | 290° |
| 2026-04-27 11:29 | -22.89970 | 142.98623 | 30088 ft | 485 kts | 290° |
| 2026-04-27 11:30 | -22.87217 | 142.91932 | 30097 ft | 485 kts | 290° |
| 2026-04-27 11:30 | -22.84465 | 142.85254 | 30102 ft | 485 kts | 290° |
| 2026-04-27 11:31 | -22.81810 | 142.78818 | 30104 ft | 485 kts | 290° |
| 2026-04-27 11:31 | -22.79911 | 142.74222 | 30094 ft | 485 kts | 290° |
| 2026-04-27 11:32 | -22.77593 | 142.68619 | 30107 ft | 485 kts | 290° |
| 2026-04-27 11:32 | -22.77064 | 142.67341 | 30105 ft | 485 kts | 290° |
| 2026-04-27 11:33 | -22.76682 | 142.66418 | 30098 ft | 485 kts | 290° |
| 2026-04-27 11:33 | -22.76458 | 142.65877 | 30098 ft | 485 kts | 290° |
| 2026-04-27 11:34 | -22.76346 | 142.65607 | 30098 ft | 485 kts | 290° |
| 2026-04-27 11:34 | -22.76050 | 142.64893 | 30097 ft | 485 kts | 290° |
| 2026-04-27 11:35 | -22.75876 | 142.64472 | 30096 ft | 485 kts | 290° |
| 2026-04-27 11:35 | -22.75462 | 142.63477 | 30094 ft | 485 kts | 290° |
| 2026-04-27 11:36 | -22.73737 | 142.59311 | 30090 ft | 485 kts | 290° |
| 2026-04-27 11:36 | -22.71659 | 142.54297 | 30104 ft | 485 kts | 290° |
| 2026-04-27 11:37 | -22.71122 | 142.53003 | 30098 ft | 486 kts | 290° |
| 2026-04-27 11:37 | -22.70717 | 142.52029 | 30094 ft | 485 kts | 291° |
| 2026-04-27 11:38 | -22.70386 | 142.51236 | 30107 ft | 485 kts | 290° |
| 2026-04-27 11:38 | -22.70061 | 142.50455 | 30105 ft | 485 kts | 291° |
| 2026-04-27 11:39 | -22.69853 | 142.49958 | 30099 ft | 486 kts | 291° |
| 2026-04-27 11:39 | -22.69656 | 142.49484 | 30093 ft | 486 kts | 291° |
| 2026-04-27 11:40 | -22.68477 | 142.46654 | 30067 ft | 487 kts | 291° |
| 2026-04-27 11:40 | -22.68199 | 142.45984 | 30066 ft | 487 kts | 291° |
| 2026-04-27 11:41 | -22.68119 | 142.45792 | 30063 ft | 486 kts | 290° |
| 2026-04-27 11:41 | -22.67626 | 142.44606 | 30112 ft | 485 kts | 290° |
| 2026-04-27 11:42 | -22.67268 | 142.43748 | 30150 ft | 484 kts | 291° |
| 2026-04-27 11:42 | -22.67176 | 142.43526 | 30184 ft | 484 kts | 291° |
| 2026-04-27 11:43 | -22.67011 | 142.43130 | 30195 ft | 484 kts | 291° |
| 2026-04-27 11:43 | -22.66865 | 142.42781 | 30210 ft | 484 kts | 291° |
| 2026-04-27 11:44 | -22.66660 | 142.42288 | 30214 ft | 484 kts | 291° |
| 2026-04-27 11:44 | -22.66162 | 142.41095 | 30222 ft | 484 kts | 291° |
| 2026-04-27 11:45 | -22.65997 | 142.40698 | 30214 ft | 484 kts | 291° |
| 2026-04-27 11:45 | -22.65861 | 142.40371 | 30212 ft | 485 kts | 291° |
| 2026-04-27 11:46 | -22.65567 | 142.39665 | 30202 ft | 485 kts | 291° |
| 2026-04-27 11:46 | -22.64390 | 142.36839 | 30161 ft | 486 kts | 291° |
| 2026-04-27 11:47 | -22.64016 | 142.35939 | 30156 ft | 487 kts | 291° |
| 2026-04-27 11:47 | -22.63473 | 142.34634 | 30140 ft | 487 kts | 291° |
| 2026-04-27 11:48 | -22.63314 | 142.34250 | 30135 ft | 488 kts | 291° |
| 2026-04-27 11:48 | -22.62606 | 142.32550 | 30084 ft | 489 kts | 291° |
| 2026-04-27 11:49 | -22.62467 | 142.32216 | 30080 ft | 489 kts | 291° |
| 2026-04-27 11:49 | -22.62395 | 142.32042 | 30077 ft | 489 kts | 291° |
| 2026-04-27 11:50 | -22.61995 | 142.31081 | 30093 ft | 488 kts | 291° |
| 2026-04-27 11:50 | -22.60743 | 142.28074 | 30118 ft | 488 kts | 291° |
| 2026-04-27 11:51 | -22.60192 | 142.26753 | 30096 ft | 489 kts | 291° |
| 2026-04-27 11:52 | -22.59029 | 142.23962 | 30095 ft | 489 kts | 291° |
| 2026-04-27 11:52 | -22.58134 | 142.21822 | 30097 ft | 489 kts | 291° |
| 2026-04-27 11:53 | -22.57438 | 142.20156 | 30102 ft | 489 kts | 291° |
| 2026-04-27 11:53 | -22.56443 | 142.17778 | 30130 ft | 488 kts | 291° |
| 2026-04-27 11:54 | -22.56024 | 142.16777 | 30139 ft | 488 kts | 291° |
| 2026-04-27 11:54 | -22.55425 | 142.15346 | 30129 ft | 489 kts | 291° |
| 2026-04-27 11:55 | -22.54691 | 142.13595 | 30079 ft | 490 kts | 291° |
| 2026-04-27 11:55 | -22.51883 | 142.06893 | 30082 ft | 489 kts | 291° |
| 2026-04-27 11:56 | -22.49076 | 142.00198 | 30093 ft | 488 kts | 291° |
| 2026-04-27 11:56 | -22.46271 | 141.93520 | 30095 ft | 487 kts | 291° |
| 2026-04-27 11:57 | -22.43491 | 141.86911 | 30121 ft | 487 kts | 291° |
| 2026-04-27 11:57 | -22.40683 | 141.80245 | 30085 ft | 487 kts | 291° |
| 2026-04-27 11:58 | -22.37874 | 141.73585 | 30104 ft | 487 kts | 291° |
| 2026-04-27 11:58 | -22.35061 | 141.66926 | 30091 ft | 487 kts | 291° |
| 2026-04-27 11:59 | -22.32242 | 141.60260 | 30093 ft | 488 kts | 291° |
| 2026-04-27 11:59 | -22.29419 | 141.53595 | 30092 ft | 488 kts | 291° |
| 2026-04-27 12:00 | -22.27070 | 141.48056 | 30098 ft | 488 kts | 291° |
| 2026-04-27 12:00 | -22.23782 | 141.40313 | 30101 ft | 488 kts | 291° |
| 2026-04-27 12:01 | -22.21405 | 141.34723 | 30104 ft | 488 kts | 291° |
| 2026-04-27 12:01 | -22.18110 | 141.26984 | 30164 ft | 490 kts | 292° |
| 2026-04-27 12:01 | -22.17148 | 141.24728 | 30320 ft | 490 kts | 292° |
| 2026-04-27 12:02 | -22.15724 | 141.21390 | 30697 ft | 488 kts | 292° |
| 2026-04-27 12:02 | -22.13854 | 141.17011 | 31245 ft | 483 kts | 292° |
| 2026-04-27 12:02 | -22.12925 | 141.14837 | 31510 ft | 481 kts | 292° |
| 2026-04-27 12:02 | -22.11529 | 141.11573 | 31861 ft | 478 kts | 292° |
| 2026-04-27 12:03 | -22.10138 | 141.08319 | 32026 ft | 479 kts | 292° |
| 2026-04-27 12:03 | -22.07339 | 141.01774 | 32114 ft | 480 kts | 292° |
| 2026-04-27 12:04 | -22.04544 | 140.95254 | 32113 ft | 478 kts | 292° |
| 2026-04-27 12:04 | -22.01757 | 140.88761 | 32100 ft | 476 kts | 292° |
| 2026-04-27 12:05 | -21.98978 | 140.82294 | 32102 ft | 476 kts | 292° |
| 2026-04-27 12:05 | -21.96196 | 140.75828 | 32102 ft | 476 kts | 292° |
| 2026-04-27 12:06 | -21.93404 | 140.69348 | 32105 ft | 477 kts | 292° |
| 2026-04-27 12:06 | -21.90607 | 140.62864 | 32100 ft | 478 kts | 292° |
| 2026-04-27 12:07 | -21.87800 | 140.56365 | 32105 ft | 479 kts | 292° |
| 2026-04-27 12:07 | -21.85006 | 140.49908 | 32102 ft | 479 kts | 292° |
| 2026-04-27 12:08 | -21.82189 | 140.43403 | 32104 ft | 480 kts | 292° |
| 2026-04-27 12:08 | -21.79369 | 140.36900 | 32104 ft | 480 kts | 292° |
| 2026-04-27 12:09 | -21.76545 | 140.30399 | 32105 ft | 479 kts | 292° |
| 2026-04-27 12:09 | -21.73721 | 140.23903 | 32104 ft | 479 kts | 292° |
| 2026-04-27 12:10 | -21.70895 | 140.17413 | 32098 ft | 479 kts | 292° |
| 2026-04-27 12:10 | -21.68069 | 140.10930 | 32105 ft | 479 kts | 292° |
| 2026-04-27 12:11 | -21.65241 | 140.04450 | 32103 ft | 479 kts | 292° |
| 2026-04-27 12:11 | -21.62412 | 139.97977 | 32106 ft | 478 kts | 292° |
| 2026-04-27 12:12 | -21.59582 | 139.91508 | 32100 ft | 479 kts | 292° |
| 2026-04-27 12:12 | -21.56747 | 139.85037 | 32104 ft | 479 kts | 292° |
| 2026-04-27 12:13 | -21.53905 | 139.78560 | 32103 ft | 479 kts | 292° |
| 2026-04-27 12:13 | -21.51061 | 139.72087 | 32096 ft | 480 kts | 292° |
| 2026-04-27 12:14 | -21.48230 | 139.65649 | 32105 ft | 480 kts | 292° |
| 2026-04-27 12:14 | -21.45376 | 139.59168 | 32102 ft | 480 kts | 292° |
| 2026-04-27 12:15 | -21.42518 | 139.52686 | 32104 ft | 480 kts | 292° |
| 2026-04-27 12:15 | -21.39658 | 139.46208 | 32104 ft | 481 kts | 291° |
| 2026-04-27 12:16 | -21.36793 | 139.39726 | 32102 ft | 481 kts | 291° |
| 2026-04-27 12:16 | -21.33926 | 139.33249 | 32099 ft | 481 kts | 292° |
| 2026-04-27 12:17 | -21.31057 | 139.26776 | 32096 ft | 480 kts | 292° |
| 2026-04-27 12:17 | -21.28189 | 139.20313 | 32098 ft | 480 kts | 292° |
| 2026-04-27 12:18 | -21.25318 | 139.13850 | 32093 ft | 480 kts | 292° |
| 2026-04-27 12:18 | -21.22447 | 139.07397 | 32085 ft | 480 kts | 291° |
| 2026-04-27 12:19 | -21.19576 | 139.00951 | 32100 ft | 479 kts | 291° |
| 2026-04-27 12:19 | -21.16720 | 138.94544 | 32088 ft | 480 kts | 291° |
| 2026-04-27 12:20 | -21.13841 | 138.88096 | 32083 ft | 480 kts | 290° |
| 2026-04-27 12:20 | -21.10960 | 138.81653 | 32085 ft | 480 kts | 290° |
| 2026-04-27 12:21 | -21.08077 | 138.75210 | 32091 ft | 480 kts | 290° |
| 2026-04-27 12:21 | -21.05191 | 138.68769 | 32084 ft | 480 kts | 290° |
| 2026-04-27 12:22 | -21.02302 | 138.62332 | 32076 ft | 480 kts | 289° |
| 2026-04-27 12:22 | -20.99409 | 138.55892 | 32078 ft | 480 kts | 289° |
| 2026-04-27 12:23 | -20.96514 | 138.49454 | 32086 ft | 480 kts | 289° |
| 2026-04-27 12:23 | -20.93612 | 138.43012 | 32068 ft | 481 kts | 288° |
| 2026-04-27 12:24 | -20.90708 | 138.36571 | 32086 ft | 481 kts | 288° |
| 2026-04-27 12:24 | -20.87799 | 138.30126 | 32085 ft | 482 kts | 288° |
| 2026-04-27 12:25 | -20.84883 | 138.23675 | 32084 ft | 482 kts | 288° |
| 2026-04-27 12:25 | -20.81961 | 138.17222 | 32074 ft | 482 kts | 288° |
| 2026-04-27 12:26 | -20.79040 | 138.10772 | 32073 ft | 482 kts | 288° |
| 2026-04-27 12:26 | -20.76114 | 138.04321 | 32078 ft | 483 kts | 288° |
| 2026-04-27 12:27 | -20.73184 | 137.97871 | 32072 ft | 483 kts | 288° |
| 2026-04-27 12:27 | -20.70252 | 137.91424 | 32077 ft | 482 kts | 288° |
| 2026-04-27 12:28 | -20.67317 | 137.84978 | 32072 ft | 483 kts | 288° |
| 2026-04-27 12:28 | -20.64379 | 137.78532 | 32061 ft | 482 kts | 288° |
| 2026-04-27 12:29 | -20.61441 | 137.72095 | 32078 ft | 482 kts | 288° |
| 2026-04-27 12:29 | -20.58521 | 137.65704 | 32079 ft | 482 kts | 288° |
| 2026-04-27 12:30 | -20.55579 | 137.59274 | 32056 ft | 482 kts | 288° |
| 2026-04-27 12:30 | -20.52638 | 137.52852 | 32068 ft | 482 kts | 288° |
| 2026-04-27 12:31 | -20.49696 | 137.46435 | 32073 ft | 481 kts | 288° |
| 2026-04-27 12:31 | -20.46751 | 137.40021 | 32073 ft | 481 kts | 288° |
| 2026-04-27 12:32 | -20.43806 | 137.33613 | 32061 ft | 481 kts | 289° |
| 2026-04-27 12:32 | -20.40857 | 137.27205 | 32060 ft | 481 kts | 289° |
| 2026-04-27 12:33 | -20.37906 | 137.20800 | 32073 ft | 481 kts | 289° |
| 2026-04-27 12:33 | -20.34954 | 137.14400 | 32074 ft | 481 kts | 289° |
| 2026-04-27 12:34 | -20.32003 | 137.08009 | 32074 ft | 481 kts | 289° |
| 2026-04-27 12:34 | -20.29047 | 137.01614 | 32066 ft | 481 kts | 289° |
| 2026-04-27 12:35 | -20.26107 | 136.95263 | 32062 ft | 481 kts | 289° |
| 2026-04-27 12:35 | -20.23150 | 136.88880 | 32071 ft | 481 kts | 289° |
| 2026-04-27 12:36 | -20.20188 | 136.82495 | 32072 ft | 481 kts | 289° |
| 2026-04-27 12:36 | -20.17227 | 136.76118 | 32051 ft | 481 kts | 289° |
| 2026-04-27 12:37 | -20.14279 | 136.69733 | 32065 ft | 480 kts | 289° |
| 2026-04-27 12:37 | -20.11432 | 136.63316 | 32067 ft | 479 kts | 288° |
| 2026-04-27 12:38 | -20.08608 | 136.56890 | 32051 ft | 480 kts | 288° |
| 2026-04-27 12:38 | -20.05769 | 136.50465 | 32061 ft | 480 kts | 289° |
| 2026-04-27 12:39 | -20.02917 | 136.44042 | 32062 ft | 480 kts | 289° |
| 2026-04-27 12:39 | -20.00060 | 136.37624 | 32063 ft | 480 kts | 289° |
| 2026-04-27 12:40 | -19.97200 | 136.31206 | 32058 ft | 480 kts | 289° |
| 2026-04-27 12:40 | -19.94337 | 136.24789 | 32060 ft | 480 kts | 289° |
| 2026-04-27 12:41 | -19.91494 | 136.18421 | 32061 ft | 480 kts | 289° |
| 2026-04-27 12:41 | -19.88630 | 136.12016 | 32057 ft | 480 kts | 289° |
| 2026-04-27 12:42 | -19.85762 | 136.05609 | 32063 ft | 480 kts | 289° |
| 2026-04-27 12:42 | -19.82898 | 135.99217 | 32057 ft | 480 kts | 289° |
| 2026-04-27 12:43 | -19.80026 | 135.92817 | 32053 ft | 479 kts | 290° |
| 2026-04-27 12:43 | -19.77157 | 135.86429 | 32058 ft | 479 kts | 290° |
| 2026-04-27 12:44 | -19.74286 | 135.80044 | 32053 ft | 479 kts | 290° |
| 2026-04-27 12:44 | -19.71414 | 135.73665 | 32056 ft | 479 kts | 290° |
| 2026-04-27 12:45 | -19.68540 | 135.67287 | 32055 ft | 479 kts | 290° |
| 2026-04-27 12:45 | -19.65664 | 135.60913 | 32048 ft | 478 kts | 290° |
| 2026-04-27 12:46 | -19.62791 | 135.54554 | 32062 ft | 478 kts | 290° |
| 2026-04-27 12:46 | -19.59916 | 135.48196 | 32054 ft | 478 kts | 290° |
| 2026-04-27 12:47 | -19.57041 | 135.41846 | 32058 ft | 478 kts | 290° |
| 2026-04-27 12:47 | -19.54164 | 135.35500 | 32059 ft | 477 kts | 290° |
| 2026-04-27 12:48 | -19.51285 | 135.29155 | 32054 ft | 477 kts | 290° |
| 2026-04-27 12:48 | -19.48407 | 135.22820 | 32057 ft | 477 kts | 290° |
| 2026-04-27 12:49 | -19.45545 | 135.16528 | 32060 ft | 477 kts | 290° |
| 2026-04-27 12:49 | -19.42663 | 135.10197 | 32058 ft | 477 kts | 290° |
| 2026-04-27 12:50 | -19.39776 | 135.03863 | 32051 ft | 477 kts | 290° |
| 2026-04-27 12:50 | -19.36890 | 134.97538 | 32043 ft | 477 kts | 291° |
| 2026-04-27 12:51 | -19.33999 | 134.91211 | 32055 ft | 477 kts | 291° |
| 2026-04-27 12:51 | -19.31107 | 134.84887 | 32057 ft | 477 kts | 291° |
| 2026-04-27 12:52 | -19.28214 | 134.78568 | 32046 ft | 477 kts | 291° |
| 2026-04-27 12:52 | -19.25316 | 134.72246 | 32053 ft | 477 kts | 291° |
| 2026-04-27 12:53 | -19.20969 | 134.62773 | 32052 ft | 477 kts | 291° |
| 2026-04-27 12:53 | -19.18066 | 134.56457 | 32053 ft | 477 kts | 291° |
| 2026-04-27 12:54 | -19.15651 | 134.51208 | 32049 ft | 478 kts | 291° |
| 2026-04-27 12:54 | -19.12742 | 134.44891 | 32055 ft | 478 kts | 291° |
| 2026-04-27 12:55 | -19.09830 | 134.38576 | 32051 ft | 478 kts | 291° |
| 2026-04-27 12:55 | -19.06915 | 134.32260 | 32055 ft | 478 kts | 291° |
| 2026-04-27 12:56 | -19.03993 | 134.25934 | 32055 ft | 479 kts | 291° |
| 2026-04-27 12:56 | -19.01067 | 134.19610 | 32052 ft | 479 kts | 291° |
| 2026-04-27 12:57 | -18.98138 | 134.13283 | 32053 ft | 480 kts | 291° |
| 2026-04-27 12:57 | -18.95201 | 134.06949 | 32061 ft | 480 kts | 291° |
| 2026-04-27 12:58 | -18.92263 | 134.00617 | 32049 ft | 481 kts | 291° |
| 2026-04-27 12:58 | -18.89316 | 133.94271 | 32059 ft | 481 kts | 291° |
| 2026-04-27 12:59 | -18.86364 | 133.87926 | 32055 ft | 482 kts | 291° |
| 2026-04-27 12:59 | -18.83427 | 133.81618 | 32047 ft | 482 kts | 292° |
| 2026-04-27 13:00 | -18.80469 | 133.75270 | 32049 ft | 482 kts | 292° |
| 2026-04-27 13:00 | -18.77508 | 133.68924 | 32055 ft | 482 kts | 292° |
| 2026-04-27 13:01 | -18.74543 | 133.62575 | 32049 ft | 482 kts | 292° |
| 2026-04-27 13:01 | -18.71743 | 133.56588 | 32052 ft | 482 kts | 292° |
| 2026-04-27 13:02 | -18.69044 | 133.50821 | 32044 ft | 483 kts | 292° |
| 2026-04-27 13:02 | -18.66069 | 133.44471 | 32044 ft | 483 kts | 292° |
| 2026-04-27 13:03 | -18.63098 | 133.38137 | 32048 ft | 483 kts | 292° |
| 2026-04-27 13:03 | -18.60118 | 133.31788 | 32043 ft | 483 kts | 292° |
| 2026-04-27 13:04 | -18.57138 | 133.25448 | 32051 ft | 483 kts | 292° |
| 2026-04-27 13:04 | -18.54154 | 133.19107 | 32043 ft | 483 kts | 292° |
| 2026-04-27 13:05 | -18.51169 | 133.12767 | 32060 ft | 483 kts | 292° |
| 2026-04-27 13:05 | -18.48180 | 133.06428 | 32055 ft | 483 kts | 292° |
| 2026-04-27 13:06 | -18.45193 | 133.00099 | 32041 ft | 483 kts | 292° |
| 2026-04-27 13:06 | -18.42196 | 132.93756 | 32040 ft | 483 kts | 292° |
| 2026-04-27 13:07 | -18.39201 | 132.87426 | 32054 ft | 483 kts | 292° |